Norwegian Dream — C6LG5 — position and weather

sailwx.info

Track history (hours):
 
Tides and Currents Weather Stations Pressure Air Temp Water Temp Dewpoint Dewpoint Depression Visibility Wind Speed Wind Dir Waves Ship Positions

Norwegian Dream

Operator: Norwegian Cruise Line

Last reported at 2017-Jul-21 18:00 UTC. Time now 2017-Jul-22 12:44 UTC.
Position N 01°24' E 103°06'.

Type: Ship. MMSI: 308272000.

Wind from 120 at 14 knots

Barometer 1012.0 mb
Air temperature 28.0 ° C
Visibility: greater than 10.8 NM
Dewpoint 22.4 ° C
Water temperature 26.0 ° C

Date/timePositionNaut miles runAvg speedWind from/ knotsBaromVisibWave heightAir tempDewpointWater temp
2017-Jul-21 18:00N 01°24' E 103°06'32 8.4 120 / 141012.010.8 28.022.426.0
2017-Jul-21 14:13N 01°12' E 103°35'210.0
2017-Jul-21 14:00N 01°11' E 103°37'5 9.2
2017-Jul-21 13:30N 01°10' E 103°42'4 7.1
2017-Jul-21 12:58N 01°09' E 103°45'5 9.2
2017-Jul-21 12:29N 01°12' E 103°49'4 7.9
2017-Jul-21 12:00N 01°16' E 103°48'1 1.7
2017-Jul-21 11:28N 01°16' E 103°49'0 0.0
2017-Jul-21 10:40N 01°16' E 103°49'0 0.0
2017-Jul-21 09:46N 01°16' E 103°49'0 0.0
2017-Jul-21 09:20N 01°16' E 103°49'0 0.0
2017-Jul-21 05:54N 01°16' E 103°49'0 0.0
2017-Jul-21 05:06N 01°16' E 103°49'0 0.0
2017-Jul-21 04:12N 01°16' E 103°49'0 0.0
2017-Jul-21 03:56N 01°16' E 103°49'0 0.0
2017-Jul-21 03:30N 01°16' E 103°49'1 2.1
2017-Jul-21 03:00N 01°16' E 103°48'3 6.6
2017-Jul-21 02:31N 01°12' E 103°49'510.7
2017-Jul-21 02:00N 01°08' E 103°46'611.4
2017-Jul-21 01:30N 01°04' E 103°42'4 8.4
2017-Jul-21 01:00N 01°03' E 103°38'4 7.5
2017-Jul-21 00:31N 01°05' E 103°34'4 7.5
2017-Jul-21 00:00N 01°07' E 103°31'4 7.7
2017-Jul-20 23:30N 01°09' E 103°28'45 8.2
2017-Jul-20 18:00N 01°30' E 102°48'40 1.7 150 / 161012.010.8 28.020.925.0
2017-Jul-19 18:00N 01°12' E 103°24'1027.8 140 / 101011.010.8 28.022.426.0
2017-Jul-19 17:37N 01°11' E 103°34'215.9
2017-Jul-19 17:29N 01°11' E 103°36'714.8
2017-Jul-19 17:00N 01°09' E 103°43'612.7
2017-Jul-19 16:30N 01°11' E 103°49'4 8.9
2017-Jul-19 16:00N 01°15' E 103°48'1 1.2
2017-Jul-19 15:02N 01°16' E 103°49'0 0.0
2017-Jul-19 14:53N 01°16' E 103°49'0 0.0
2017-Jul-19 14:26N 01°16' E 103°49'0 0.0
2017-Jul-19 13:41N 01°16' E 103°49'0 0.0
2017-Jul-19 13:17N 01°16' E 103°49'0 0.0
2017-Jul-19 12:50N 01°16' E 103°49'0 0.0
2017-Jul-19 12:29N 01°16' E 103°49'0 0.0
2017-Jul-19 11:53N 01°16' E 103°49'0 0.0
2017-Jul-19 10:29N 01°16' E 103°49'0 0.0
2017-Jul-19 09:56N 01°16' E 103°49'0 0.0
2017-Jul-19 09:23N 01°16' E 103°49'0 0.5
2017-Jul-19 09:01N 01°16' E 103°49'4 7.2
2017-Jul-19 08:30N 01°15' E 103°45'612.8
2017-Jul-19 08:00N 01°12' E 103°39'611.8
2017-Jul-19 07:29N 01°12' E 103°33'32915.5
2017-Jul-18 10:14N 05°19' E 099°56'416.7
2017-Jul-18 09:59N 05°22' E 099°55'25 1.4
2017-Jul-17 15:44N 05°31' E 100°18'7 4.6
2017-Jul-17 14:15N 05°25' E 100°21'0 0.0
2017-Jul-17 10:45N 05°25' E 100°21'0 0.0
2017-Jul-17 10:27N 05°25' E 100°21'0 0.0
2017-Jul-17 09:57N 05°25' E 100°21'0 0.0
2017-Jul-17 09:27N 05°25' E 100°21'0 0.0
2017-Jul-17 08:51N 05°25' E 100°21'0 0.0
2017-Jul-17 08:27N 05°25' E 100°21'0 0.0
2017-Jul-17 07:57N 05°25' E 100°21'0 0.0
2017-Jul-17 07:27N 05°25' E 100°21'0 0.0
2017-Jul-17 07:00N 05°25' E 100°21'2 3.0
2017-Jul-17 06:30N 05°27' E 100°21'612.1
2017-Jul-17 06:00N 05°32' E 100°18'5 8.8
2017-Jul-17 05:24N 05°34' E 100°13'1012.4
2017-Jul-17 04:37N 05°28' E 100°05'18517.4
2017-Jul-16 18:00N 02°36' E 101°12'16516.7 170 / 191010.010.8 29.022.026.0
2017-Jul-16 08:07N 01°12' E 103°34'316.1
2017-Jul-16 07:58N 01°12' E 103°36'512.0
2017-Jul-16 07:30N 01°14' E 103°42'612.4
2017-Jul-16 07:00N 01°15' E 103°48'2 3.1
2017-Jul-16 06:30N 01°16' E 103°49'0 0.0
2017-Jul-16 06:00N 01°16' E 103°49'0 0.0
2017-Jul-16 05:27N 01°16' E 103°49'0 0.0
2017-Jul-16 04:42N 01°16' E 103°49'0 0.0
2017-Jul-16 04:30N 01°16' E 103°49'0 0.0
2017-Jul-16 03:54N 01°16' E 103°49'0 0.0
2017-Jul-16 03:12N 01°16' E 103°49'0 0.0
2017-Jul-16 02:54N 01°16' E 103°49'0 0.0
2017-Jul-16 01:23N 01°16' E 103°49'1 1.4
2017-Jul-16 01:00N 01°16' E 103°49'3 6.7
2017-Jul-16 00:30N 01°12' E 103°49'5 8.9
2017-Jul-16 00:00N 01°09' E 103°46'611.0
2017-Jul-15 23:30N 01°05' E 103°42'5 9.3
2017-Jul-15 23:00N 01°03' E 103°38'4 7.4
2017-Jul-15 22:30N 01°05' E 103°35'4 7.9
2017-Jul-15 21:59N 01°07' E 103°31'4 8.0
2017-Jul-15 21:31N 01°09' E 103°28'4 7.3
2017-Jul-15 20:58N 01°11' E 103°24'23 7.6
2017-Jul-15 18:00N 01°24' E 103°06'0 0.0 180 / 231011.010.8 28.020.925.0
2017-Jul-14 18:00N 01°24' E 103°06'33 8.5 160 / 81012.010.8 28.022.425.0
2017-Jul-14 14:06N 01°12' E 103°37'111.2
2017-Jul-14 14:00N 01°11' E 103°38'510.5
2017-Jul-14 13:30N 01°09' E 103°42'5 8.8
2017-Jul-14 12:58N 01°10' E 103°47'3 7.3
2017-Jul-14 12:30N 01°14' E 103°47'3 5.4
2017-Jul-14 11:59N 01°16' E 103°49'0 0.0
2017-Jul-14 08:36N 01°16' E 103°49'0 0.0
2017-Jul-14 08:21N 01°16' E 103°49'0 0.0
2017-Jul-14 07:54N 01°16' E 103°49'0 0.0
2017-Jul-14 07:21N 01°16' E 103°49'0 0.0
2017-Jul-14 06:15N 01°16' E 103°49'0 0.0
2017-Jul-14 05:48N 01°16' E 103°49'0 0.0
2017-Jul-14 05:21N 01°16' E 103°49'0 0.0
2017-Jul-14 04:51N 01°16' E 103°49'0 0.0
2017-Jul-14 04:27N 01°16' E 103°49'0 0.0
2017-Jul-14 03:57N 01°16' E 103°49'0 0.0
2017-Jul-14 03:30N 01°16' E 103°49'1 1.6
2017-Jul-14 03:00N 01°16' E 103°48'4 7.4
2017-Jul-14 02:30N 01°12' E 103°49'4 8.6
2017-Jul-14 02:00N 01°09' E 103°47'510.9
2017-Jul-14 01:30N 01°05' E 103°43'611.1
2017-Jul-14 01:00N 01°04' E 103°37'611.3
2017-Jul-14 00:29N 01°06' E 103°32'9815.2
2017-Jul-13 18:00N 01°54' E 102°06'46 1.9 230 / 171013.0 2.2 25.022.224.0
2017-Jul-12 18:00N 01°36' E 102°48'5115.2 180 / 121012.010.8 28.020.925.0
2017-Jul-12 14:39N 01°12' E 103°33'1116.5
2017-Jul-12 14:00N 01°08' E 103°43'713.5
2017-Jul-12 13:30N 01°12' E 103°49'3 6.9
2017-Jul-12 13:00N 01°16' E 103°48'1 1.0
2017-Jul-12 12:24N 01°16' E 103°49'0 0.0
2017-Jul-12 11:54N 01°16' E 103°49'0 0.0
2017-Jul-12 11:28N 01°16' E 103°49'0 0.0
2017-Jul-12 11:00N 01°16' E 103°49'0 0.0
2017-Jul-12 10:28N 01°16' E 103°49'0 0.0
2017-Jul-12 10:00N 01°16' E 103°49'0 0.0
2017-Jul-12 09:24N 01°16' E 103°49'0 0.0
2017-Jul-12 08:54N 01°16' E 103°49'0 0.0
2017-Jul-12 08:24N 01°16' E 103°49'0 0.0
2017-Jul-12 08:00N 01°16' E 103°49'0 0.0
2017-Jul-12 07:12N 01°16' E 103°49'0 0.0
2017-Jul-12 06:52N 01°16' E 103°49'0 0.0
2017-Jul-12 06:30N 01°16' E 103°49'0 0.0
2017-Jul-12 05:54N 01°16' E 103°49'0 0.3
2017-Jul-12 05:30N 01°16' E 103°49'2 3.7
2017-Jul-12 05:00N 01°15' E 103°47'4 7.9
2017-Jul-12 04:30N 01°12' E 103°50'611.3
2017-Jul-12 04:00N 01°08' E 103°46'611.9
2017-Jul-12 03:30N 01°04' E 103°42'611.1
2017-Jul-12 03:00N 01°04' E 103°36'714.0
2017-Jul-12 02:28N 01°08' E 103°30'13415.8
2017-Jul-11 18:00N 02°18' E 101°36'   220 / 271013.010.8 27.021.325.0
Track history (hours):
 
Tides and Currents Weather Stations Pressure Air Temp Water Temp Dewpoint Dewpoint Depression Visibility Wind Speed Wind Dir Waves Ship Positions

Norwegian Dream

Operator: Norwegian Cruise Line

Last reported at 2017-Jul-21 18:00 UTC. Time now 2017-Jul-22 12:44 UTC.
Position N 01°24' E 103°06'.

Type: Ship. MMSI: 308272000.

Wind from 120 at 14 knots

Barometer 1012.0 mb
Air temperature 28.0 ° C
Visibility: greater than 10.8 NM
Dewpoint 22.4 ° C
Water temperature 26.0 ° C

Date/timePositionNaut miles runAvg speedWind from/ knotsBaromVisibWave heightAir tempDewpointWater temp
2017-Jul-21 18:00N 01°24' E 103°06'32 8.4 120 / 141012.010.8 28.022.426.0
2017-Jul-21 14:13N 01°12' E 103°35'210.0
2017-Jul-21 14:00N 01°11' E 103°37'5 9.2
2017-Jul-21 13:30N 01°10' E 103°42'4 7.1
2017-Jul-21 12:58N 01°09' E 103°45'5 9.2
2017-Jul-21 12:29N 01°12' E 103°49'4 7.9
2017-Jul-21 12:00N 01°16' E 103°48'1 1.7
2017-Jul-21 11:28N 01°16' E 103°49'0 0.0
2017-Jul-21 10:40N 01°16' E 103°49'0 0.0
2017-Jul-21 09:46N 01°16' E 103°49'0 0.0
2017-Jul-21 09:20N 01°16' E 103°49'0 0.0
2017-Jul-21 05:54N 01°16' E 103°49'0 0.0
2017-Jul-21 05:06N 01°16' E 103°49'0 0.0
2017-Jul-21 04:12N 01°16' E 103°49'0 0.0
2017-Jul-21 03:56N 01°16' E 103°49'0 0.0
2017-Jul-21 03:30N 01°16' E 103°49'1 2.1
2017-Jul-21 03:00N 01°16' E 103°48'3 6.6
2017-Jul-21 02:31N 01°12' E 103°49'510.7
2017-Jul-21 02:00N 01°08' E 103°46'611.4
2017-Jul-21 01:30N 01°04' E 103°42'4 8.4
2017-Jul-21 01:00N 01°03' E 103°38'4 7.5
2017-Jul-21 00:31N 01°05' E 103°34'4 7.5
2017-Jul-21 00:00N 01°07' E 103°31'4 7.7
2017-Jul-20 23:30N 01°09' E 103°28'45 8.2
2017-Jul-20 18:00N 01°30' E 102°48'40 1.7 150 / 161012.010.8 28.020.925.0
2017-Jul-19 18:00N 01°12' E 103°24'1027.8 140 / 101011.010.8 28.022.426.0
2017-Jul-19 17:37N 01°11' E 103°34'215.9
2017-Jul-19 17:29N 01°11' E 103°36'714.8
2017-Jul-19 17:00N 01°09' E 103°43'612.7
2017-Jul-19 16:30N 01°11' E 103°49'4 8.9
2017-Jul-19 16:00N 01°15' E 103°48'1 1.2
2017-Jul-19 15:02N 01°16' E 103°49'0 0.0
2017-Jul-19 14:53N 01°16' E 103°49'0 0.0
2017-Jul-19 14:26N 01°16' E 103°49'0 0.0
2017-Jul-19 13:41N 01°16' E 103°49'0 0.0
2017-Jul-19 13:17N 01°16' E 103°49'0 0.0
2017-Jul-19 12:50N 01°16' E 103°49'0 0.0
2017-Jul-19 12:29N 01°16' E 103°49'0 0.0
2017-Jul-19 11:53N 01°16' E 103°49'0 0.0
2017-Jul-19 10:29N 01°16' E 103°49'0 0.0
2017-Jul-19 09:56N 01°16' E 103°49'0 0.0
2017-Jul-19 09:23N 01°16' E 103°49'0 0.5
2017-Jul-19 09:01N 01°16' E 103°49'4 7.2
2017-Jul-19 08:30N 01°15' E 103°45'612.8
2017-Jul-19 08:00N 01°12' E 103°39'611.8
2017-Jul-19 07:29N 01°12' E 103°33'32915.5
2017-Jul-18 10:14N 05°19' E 099°56'416.7
2017-Jul-18 09:59N 05°22' E 099°55'25 1.4
2017-Jul-17 15:44N 05°31' E 100°18'7 4.6
2017-Jul-17 14:15N 05°25' E 100°21'0 0.0
2017-Jul-17 10:45N 05°25' E 100°21'0 0.0
2017-Jul-17 10:27N 05°25' E 100°21'0 0.0
2017-Jul-17 09:57N 05°25' E 100°21'0 0.0
2017-Jul-17 09:27N 05°25' E 100°21'0 0.0
2017-Jul-17 08:51N 05°25' E 100°21'0 0.0
2017-Jul-17 08:27N 05°25' E 100°21'0 0.0
2017-Jul-17 07:57N 05°25' E 100°21'0 0.0
2017-Jul-17 07:27N 05°25' E 100°21'0 0.0
2017-Jul-17 07:00N 05°25' E 100°21'2 3.0
2017-Jul-17 06:30N 05°27' E 100°21'612.1
2017-Jul-17 06:00N 05°32' E 100°18'5 8.8
2017-Jul-17 05:24N 05°34' E 100°13'1012.4
2017-Jul-17 04:37N 05°28' E 100°05'18517.4
2017-Jul-16 18:00N 02°36' E 101°12'16516.7 170 / 191010.010.8 29.022.026.0
2017-Jul-16 08:07N 01°12' E 103°34'316.1
2017-Jul-16 07:58N 01°12' E 103°36'512.0
2017-Jul-16 07:30N 01°14' E 103°42'612.4
2017-Jul-16 07:00N 01°15' E 103°48'2 3.1
2017-Jul-16 06:30N 01°16' E 103°49'0 0.0
2017-Jul-16 06:00N 01°16' E 103°49'0 0.0
2017-Jul-16 05:27N 01°16' E 103°49'0 0.0
2017-Jul-16 04:42N 01°16' E 103°49'0 0.0
2017-Jul-16 04:30N 01°16' E 103°49'0 0.0
2017-Jul-16 03:54N 01°16' E 103°49'0 0.0
2017-Jul-16 03:12N 01°16' E 103°49'0 0.0
2017-Jul-16 02:54N 01°16' E 103°49'0 0.0
2017-Jul-16 01:23N 01°16' E 103°49'1 1.4
2017-Jul-16 01:00N 01°16' E 103°49'3 6.7
2017-Jul-16 00:30N 01°12' E 103°49'5 8.9
2017-Jul-16 00:00N 01°09' E 103°46'611.0
2017-Jul-15 23:30N 01°05' E 103°42'5 9.3
2017-Jul-15 23:00N 01°03' E 103°38'4 7.4
2017-Jul-15 22:30N 01°05' E 103°35'4 7.9
2017-Jul-15 21:59N 01°07' E 103°31'4 8.0
2017-Jul-15 21:31N 01°09' E 103°28'4 7.3
2017-Jul-15 20:58N 01°11' E 103°24'23 7.6
2017-Jul-15 18:00N 01°24' E 103°06'0 0.0 180 / 231011.010.8 28.020.925.0
2017-Jul-14 18:00N 01°24' E 103°06'33 8.5 160 / 81012.010.8 28.022.425.0
2017-Jul-14 14:06N 01°12' E 103°37'111.2
2017-Jul-14 14:00N 01°11' E 103°38'510.5
2017-Jul-14 13:30N 01°09' E 103°42'5 8.8
2017-Jul-14 12:58N 01°10' E 103°47'3 7.3
2017-Jul-14 12:30N 01°14' E 103°47'3 5.4
2017-Jul-14 11:59N 01°16' E 103°49'0 0.0
2017-Jul-14 08:36N 01°16' E 103°49'0 0.0
2017-Jul-14 08:21N 01°16' E 103°49'0 0.0
2017-Jul-14 07:54N 01°16' E 103°49'0 0.0
2017-Jul-14 07:21N 01°16' E 103°49'0 0.0
2017-Jul-14 06:15N 01°16' E 103°49'0 0.0
2017-Jul-14 05:48N 01°16' E 103°49'0 0.0
2017-Jul-14 05:21N 01°16' E 103°49'0 0.0
2017-Jul-14 04:51N 01°16' E 103°49'0 0.0
2017-Jul-14 04:27N 01°16' E 103°49'0 0.0
2017-Jul-14 03:57N 01°16' E 103°49'0 0.0
2017-Jul-14 03:30N 01°16' E 103°49'1 1.6
2017-Jul-14 03:00N 01°16' E 103°48'4 7.4
2017-Jul-14 02:30N 01°12' E 103°49'4 8.6
2017-Jul-14 02:00N 01°09' E 103°47'510.9
2017-Jul-14 01:30N 01°05' E 103°43'611.1
2017-Jul-14 01:00N 01°04' E 103°37'611.3
2017-Jul-14 00:29N 01°06' E 103°32'9815.2
2017-Jul-13 18:00N 01°54' E 102°06'46 1.9 230 / 171013.0 2.2 25.022.224.0
2017-Jul-12 18:00N 01°36' E 102°48'5115.2 180 / 121012.010.8 28.020.925.0
2017-Jul-12 14:39N 01°12' E 103°33'1116.5
2017-Jul-12 14:00N 01°08' E 103°43'713.5
2017-Jul-12 13:30N 01°12' E 103°49'3 6.9
2017-Jul-12 13:00N 01°16' E 103°48'1 1.0
2017-Jul-12 12:24N 01°16' E 103°49'0 0.0
2017-Jul-12 11:54N 01°16' E 103°49'0 0.0
2017-Jul-12 11:28N 01°16' E 103°49'0 0.0
2017-Jul-12 11:00N 01°16' E 103°49'0 0.0
2017-Jul-12 10:28N 01°16' E 103°49'0 0.0
2017-Jul-12 10:00N 01°16' E 103°49'0 0.0
2017-Jul-12 09:24N 01°16' E 103°49'0 0.0
2017-Jul-12 08:54N 01°16' E 103°49'0 0.0
2017-Jul-12 08:24N 01°16' E 103°49'0 0.0
2017-Jul-12 08:00N 01°16' E 103°49'0 0.0
2017-Jul-12 07:12N 01°16' E 103°49'0 0.0
2017-Jul-12 06:52N 01°16' E 103°49'0 0.0
2017-Jul-12 06:30N 01°16' E 103°49'0 0.0
2017-Jul-12 05:54N 01°16' E 103°49'0 0.3
2017-Jul-12 05:30N 01°16' E 103°49'2 3.7
2017-Jul-12 05:00N 01°15' E 103°47'4 7.9
2017-Jul-12 04:30N 01°12' E 103°50'611.3
2017-Jul-12 04:00N 01°08' E 103°46'611.9
2017-Jul-12 03:30N 01°04' E 103°42'611.1
2017-Jul-12 03:00N 01°04' E 103°36'714.0
2017-Jul-12 02:28N 01°08' E 103°30'13415.8
2017-Jul-11 18:00N 02°18' E 101°36'   220 / 271013.010.8 27.021.325.0

Dump ship's entire track history